Time;durP1;ratioP1;P1;durP2;ratioP2;P2;SDS_P1;SDS_P2;PMS_P1;PMS_P2;Temp;Humidity;BMP_temperature;BMP_pressure;BME280_temperature;BME280_humidity;BME280_pressure;Samples;Min_cycle;Max_cycle;Signal;HPM_P1;HPM_P2
2023/05/06 00:01:23;;;;;;;0.00;0.00;;;;;;;12.77;94.84;100140.44;6237515;23;20010;-80
2023/05/06 00:03:49;;;;;;;0.00;0.00;;;;;;;12.85;94.38;100148.03;6184133;23;20096;-77
2023/05/06 00:06:17;;;;;;;0.00;0.00;;;;;;;12.81;94.23;100139.59;6214531;23;20091;-78
2023/05/06 00:08:44;;;;;;;0.00;0.00;;;;;;;12.73;94.10;100123.72;6211243;23;20011;-78
2023/05/06 00:11:10;;;;;;;0.00;0.00;;;;;;;12.77;94.48;100129.47;6187452;23;20015;-81
2023/05/06 00:13:36;;;;;;;0.00;0.00;;;;;;;12.63;94.43;100113.69;6238241;23;20016;-78
2023/05/06 00:16:09;;;;;;;0.00;0.00;;;;;;;12.67;94.60;100111.16;6213894;23;20339;-80
2023/05/06 00:18:35;;;;;;;0.00;0.00;;;;;;;12.84;94.58;100146.44;6214845;23;20007;-80
2023/05/06 00:21:00;;;;;;;0.00;0.00;;;;;;;12.73;94.32;100127.31;6189186;23;20035;-78
2023/05/06 00:23:25;;;;;;;0.00;0.00;;;;;;;12.79;94.43;100133.56;6232122;23;20295;-78
2023/05/06 00:25:55;;;;;;;0.00;0.00;;;;;;;12.82;93.91;100132.16;6239115;23;20427;-79
2023/05/06 00:28:21;;;;;;;0.00;0.00;;;;;;;12.59;94.47;100101.66;6233498;23;20430;-78
2023/05/06 00:30:46;;;;;;;0.00;0.00;;;;;;;12.78;94.20;100136.63;6238771;23;20031;-77
2023/05/06 00:33:11;;;;;;;0.00;0.00;;;;;;;12.82;94.09;100126.66;6182486;23;20081;-76
2023/05/06 00:35:37;;;;;;;0.00;0.00;;;;;;;12.84;94.12;100133.50;6239439;23;20010;-77
2023/05/06 00:38:11;;;;;;;0.00;0.00;;;;;;;12.88;93.96;100131.03;6214012;23;20008;-76
2023/05/06 00:40:37;;;;;;;;;;;;;;;12.93;93.57;100128.22;6237918;22;20015;-77
2023/05/06 00:43:02;;;;;;;0.00;0.00;;;;;;;12.91;93.78;100120.28;6240453;22;19958;-76
2023/05/06 00:45:28;;;;;;;0.00;0.00;;;;;;;12.94;93.82;100124.38;6235522;23;20414;-79
2023/05/06 00:47:55;;;;;;;0.00;0.00;;;;;;;12.90;93.83;100115.09;6239530;22;20007;-76
2023/05/06 00:50:32;;;;;;;0.00;0.00;;;;;;;12.82;93.15;100110.22;6235298;22;20008;-78
2023/05/06 00:52:58;;;;;;;0.00;0.00;;;;;;;12.83;93.50;100118.16;6238608;23;20054;-75
2023/05/06 00:55:25;;;;;;;0.00;0.00;;;;;;;12.82;93.39;100118.44;6208157;23;20008;-75
2023/05/06 00:57:51;;;;;;;0.00;0.00;;;;;;;12.79;93.53;100110.78;6238980;23;20008;-75
2023/05/06 01:00:19;;;;;;;0.00;0.00;;;;;;;12.74;94.32;100117.94;6234719;23;20105;-76
2023/05/06 01:02:45;;;;;;;0.00;0.00;;;;;;;12.70;94.01;100107.84;6243194;22;20326;-77
2023/05/06 01:05:10;;;;;;;0.00;0.00;;;;;;;12.69;94.45;100118.00;6213534;23;20016;-76
2023/05/06 01:08:03;;;;;;;0.00;0.00;;;;;;;12.70;94.38;100125.16;6207732;23;20008;-75
2023/05/06 01:10:34;;;;;;;0.00;0.00;;;;;;;12.66;94.91;100112.28;6237603;23;20438;-75
2023/05/06 01:13:17;;;;;;;0.00;0.00;;;;;;;12.57;94.66;100101.09;6236700;22;20004;-74
2023/05/06 01:15:45;;;;;;;0.00;0.00;;;;;;;12.55;94.69;100108.81;6237854;23;20038;-76
2023/05/06 01:18:19;;;;;;;0.00;0.00;;;;;;;12.47;94.94;100098.44;6234365;23;20500;-75
2023/05/06 01:20:51;;;;;;;0.00;0.00;;;;;;;12.43;94.92;100092.72;6239838;23;20004;-76
2023/05/06 01:23:17;;;;;;;0.00;0.00;;;;;;;12.33;94.94;100090.88;6233949;23;20004;-76
2023/05/06 01:25:42;;;;;;;0.00;0.00;;;;;;;12.35;95.17;100102.38;6186777;23;20012;-75
2023/05/06 01:28:10;;;;;;;0.00;0.00;;;;;;;12.34;95.15;100111.72;6235452;23;20423;-76
2023/05/06 01:30:45;;;;;;;0.00;0.00;;;;;;;12.28;95.20;100107.38;6238482;23;20343;-75
2023/05/06 01:33:21;;;;;;;0.00;0.00;;;;;;;12.19;95.16;100098.09;6236211;22;20007;-75
2023/05/06 01:36:19;;;;;;;0.00;0.00;;;;;;;12.14;96.02;100103.63;6240032;23;20310;-76
2023/05/06 01:38:50;;;;;;;0.00;0.00;;;;;;;12.07;95.80;100094.91;6184475;23;20014;-75
2023/05/06 01:41:16;;;;;;;0.00;0.00;;;;;;;12.12;95.58;100105.81;6237629;23;20015;-76
2023/05/06 01:43:44;;;;;;;0.00;0.00;;;;;;;12.16;95.81;100101.41;6234756;23;20427;-76
2023/05/06 01:46:17;;;;;;;0.00;0.00;;;;;;;12.26;95.66;100092.31;6238821;23;20330;-76
2023/05/06 01:48:45;;;;;;;0.00;0.00;;;;;;;12.30;95.44;100099.66;6234591;23;20472;-76
2023/05/06 01:51:10;;;;;;;0.00;0.00;;;;;;;12.28;94.94;100103.78;6240169;22;20008;-75
2023/05/06 01:53:36;;;;;;;0.00;0.00;;;;;;;12.10;95.19;100095.13;6235126;23;20054;-75
2023/05/06 01:56:02;;;;;;;0.00;0.00;;;;;;;11.95;95.67;100092.50;6215409;23;20004;-76
2023/05/06 01:58:27;;;;;;;0.00;0.00;;;;;;;11.87;96.14;100086.50;6187965;23;20004;-76
2023/05/06 02:00:52;;;;;;;0.00;0.00;;;;;;;11.86;96.24;100089.53;6236456;23;20000;-76
2023/05/06 02:03:18;;;;;;;0.00;0.00;;;;;;;11.91;96.25;100084.00;6188866;23;20018;-76
2023/05/06 02:05:43;;;;;;;0.00;0.00;;;;;;;12.02;96.02;100091.09;6207680;23;20014;-75
2023/05/06 02:08:09;;;;;;;0.00;0.00;;;;;;;12.11;95.95;100087.75;6208466;23;20042;-77
2023/05/06 02:10:34;;;;;;;0.00;0.00;;;;;;;12.09;96.11;100070.75;6209820;23;20438;-76
2023/05/06 02:13:00;;;;;;;0.00;0.00;;;;;;;12.11;95.37;100074.88;6182886;23;20058;-75
2023/05/06 02:15:25;;;;;;;0.00;0.00;;;;;;;12.10;95.69;100073.22;6184854;23;20008;-75
2023/05/06 02:17:51;;;;;;;0.00;0.00;;;;;;;12.07;96.03;100079.28;6234702;23;20004;-75
2023/05/06 02:20:16;;;;;;;0.00;0.00;;;;;;;12.04;96.64;100080.66;6184820;23;20065;-75
2023/05/06 02:22:41;;;;;;;0.00;0.00;;;;;;;12.01;96.73;100070.25;6237670;23;20058;-75
2023/05/06 02:25:07;;;;;;;0.00;0.00;;;;;;;12.02;96.43;100071.91;6234382;23;20015;-76
2023/05/06 02:27:33;;;;;;;0.00;0.00;;;;;;;12.03;96.42;100079.03;6240833;22;20378;-75
2023/05/06 02:29:58;;;;;;;0.00;0.00;;;;;;;12.03;96.62;100068.06;6208973;23;20044;-76
2023/05/06 02:32:23;;;;;;;0.00;0.00;;;;;;;12.10;96.68;100066.94;6188397;23;20035;-76
2023/05/06 02:34:50;;;;;;;0.00;0.00;;;;;;;12.15;96.30;100058.66;6185773;23;20015;-74
2023/05/06 02:37:16;;;;;;;0.00;0.00;;;;;;;12.32;95.56;100075.50;6237429;23;20334;-75
2023/05/06 02:39:41;;;;;;;0.00;0.00;;;;;;;12.35;95.56;100076.88;6190348;23;20007;-75
2023/05/06 02:42:06;;;;;;;0.08;0.08;;;;;;;12.33;95.77;100054.41;6185103;23;20015;-76
2023/05/06 02:44:32;;;;;;;0.00;0.00;;;;;;;12.50;95.11;100059.47;6213849;23;20028;-77
2023/05/06 02:46:57;;;;;;;0.00;0.00;;;;;;;12.49;94.91;100063.34;6185932;23;20370;-76
2023/05/06 02:49:23;;;;;;;0.00;0.00;;;;;;;12.54;94.79;100060.53;6210741;23;20427;-76
2023/05/06 02:51:48;;;;;;;0.00;0.00;;;;;;;12.55;94.93;100067.66;6212394;23;20015;-76
2023/05/06 02:54:13;;;;;;;0.00;0.00;;;;;;;12.54;94.84;100064.13;6213435;23;20395;-75
2023/05/06 02:56:41;;;;;;;0.00;0.00;;;;;;;12.51;94.43;100067.44;6237401;23;20087;-75
2023/05/06 02:59:06;;;;;;;0.00;0.00;;;;;;;12.49;94.41;100058.66;6235789;23;20000;-75
2023/05/06 03:01:32;;;;;;;0.00;0.00;;;;;;;12.45;95.07;100063.06;6211379;23;20058;-76
2023/05/06 03:03:57;;;;;;;0.00;0.00;;;;;;;12.46;94.83;100063.91;6234439;23;20004;-75
2023/05/06 03:06:22;;;;;;;0.00;0.00;;;;;;;12.44;94.91;100066.09;6241761;22;20015;-76
2023/05/06 03:08:48;;;;;;;0.00;0.00;;;;;;;12.45;95.19;100067.75;6212133;23;20001;-74
2023/05/06 03:11:13;;;;;;;0.00;0.00;;;;;;;12.38;94.90;100063.44;6237508;23;20074;-75
2023/05/06 03:13:38;;;;;;;0.00;0.00;;;;;;;12.36;95.37;100054.66;6240720;23;20005;-75
2023/05/06 03:16:04;;;;;;;0.00;0.00;;;;;;;12.36;95.19;100054.66;6213825;23;20022;-75
2023/05/06 03:18:30;;;;;;;0.00;0.00;;;;;;;12.42;94.90;100057.38;6187448;23;20048;-75
2023/05/06 03:20:55;;;;;;;0.00;0.00;;;;;;;12.50;95.12;100064.94;6239914;23;20004;-75
2023/05/06 03:23:20;;;;;;;0.00;0.00;;;;;;;12.52;95.15;100062.75;6236677;23;20008;-75
2023/05/06 03:25:46;;;;;;;0.00;0.00;;;;;;;12.56;95.09;100058.34;6241875;23;20008;-77
2023/05/06 03:28:11;;;;;;;0.00;0.00;;;;;;;12.57;94.49;100059.94;6210235;23;20016;-76
2023/05/06 03:30:37;;;;;;;0.00;0.00;;;;;;;12.64;94.80;100054.16;6192027;23;20020;-76
2023/05/06 03:33:02;;;;;;;0.00;0.00;;;;;;;12.66;94.65;100052.75;6210428;23;20059;-76
2023/05/06 03:35:28;;;;;;;0.00;0.00;;;;;;;12.58;94.33;100053.38;6211585;23;20438;-77
2023/05/06 03:37:53;;;;;;;0.00;0.00;;;;;;;12.50;94.71;100052.06;6238837;23;20004;-76
2023/05/06 03:40:19;;;;;;;0.00;0.00;;;;;;;12.36;95.21;100032.72;6239768;23;19996;-76
2023/05/06 03:42:45;;;;;;;0.00;0.00;;;;;;;12.29;95.41;100043.19;6185903;23;20154;-77
2023/05/06 03:45:10;;;;;;;0.00;0.00;;;;;;;12.21;95.86;100032.84;6238753;23;20007;-76
2023/05/06 03:47:36;;;;;;;0.00;0.00;;;;;;;12.20;96.31;100042.19;6210627;23;20058;-76
2023/05/06 03:50:01;;;;;;;0.00;0.00;;;;;;;12.17;96.68;100040.00;6213502;23;20091;-76
2023/05/06 03:52:27;;;;;;;0.00;0.00;;;;;;;12.05;97.06;100037.63;6239858;23;20367;-76
2023/05/06 03:54:52;;;;;;;0.00;0.00;;;;;;;11.97;97.08;100030.84;6211272;23;20013;-76
2023/05/06 03:57:18;;;;;;;0.00;0.00;;;;;;;12.02;97.93;100035.47;6214983;23;20008;-76
2023/05/06 03:59:43;;;;;;;0.00;0.00;;;;;;;12.06;97.78;100033.78;6210052;23;20007;-76
2023/05/06 04:02:09;;;;;;;0.00;0.00;;;;;;;12.09;98.07;100038.72;6215992;23;20043;-76
2023/05/06 04:04:34;;;;;;;0.00;0.00;;;;;;;12.13;98.04;100023.31;6240056;23;20420;-76
2023/05/06 04:06:59;;;;;;;0.00;0.00;;;;;;;12.23;97.72;100022.41;6213931;23;20004;-76
2023/05/06 04:09:25;;;;;;;0.00;0.00;;;;;;;12.30;97.29;100039.34;6241442;23;20008;-75
2023/05/06 04:11:50;;;;;;;0.05;0.05;;;;;;;12.22;97.50;100026.25;6187053;23;20004;-75
2023/05/06 04:14:16;;;;;;;0.00;0.00;;;;;;;12.28;97.59;100032.50;6215438;23;20008;-76
2023/05/06 04:16:41;;;;;;;0.00;0.00;;;;;;;12.24;97.25;100029.53;6187729;23;20018;-76
2023/05/06 04:19:07;;;;;;;0.00;0.00;;;;;;;12.23;97.72;100027.91;6188858;23;20012;-76
2023/05/06 04:21:32;;;;;;;0.00;0.00;;;;;;;12.20;97.20;100023.00;6242230;23;20030;-76
2023/05/06 04:23:58;;;;;;;0.03;0.03;;;;;;;12.15;97.62;100025.75;6210255;23;20008;-76
2023/05/06 04:26:23;;;;;;;0.00;0.00;;;;;;;12.13;98.12;100023.31;6241900;23;20011;-76
2023/05/06 04:28:50;;;;;;;0.00;0.00;;;;;;;12.13;98.45;100022.50;6211600;23;20012;-76
2023/05/06 04:31:16;;;;;;;0.00;0.00;;;;;;;12.21;97.99;100025.44;6239854;23;20066;-77
2023/05/06 04:33:41;;;;;;;0.00;0.00;;;;;;;12.16;98.30;100032.88;6238692;22;20012;-76
2023/05/06 04:36:07;;;;;;;0.00;0.00;;;;;;;12.18;98.40;100036.19;6189434;23;20022;-77
2023/05/06 04:38:33;;;;;;;0.00;0.00;;;;;;;12.12;98.92;100031.81;6216282;23;20050;-77
2023/05/06 04:40:58;;;;;;;0.00;0.00;;;;;;;12.08;98.91;100030.78;6210647;23;20004;-77
2023/05/06 04:43:26;;;;;;;0.00;0.00;;;;;;;12.00;99.49;100030.28;6190293;23;20027;-76
2023/05/06 04:45:53;;;;;;;0.00;0.00;;;;;;;11.92;99.93;100030.84;6234137;23;20834;-76
2023/05/06 04:48:22;;;;;;;0.00;0.00;;;;;;;11.90;99.89;100035.81;6240547;23;20008;-77
2023/05/06 04:50:49;;;;;;;0.00;0.00;;;;;;;11.88;100.00;100038.00;6235483;23;20090;-76
2023/05/06 04:53:15;;;;;;;0.00;0.00;;;;;;;11.84;100.00;100036.91;6214642;23;20016;-76
2023/05/06 04:55:40;;;;;;;0.00;0.00;;;;;;;11.85;100.00;100038.56;6239219;23;20377;-77
2023/05/06 04:58:06;;;;;;;0.00;0.00;;;;;;;11.79;100.00;100034.22;6210346;23;20004;-77
2023/05/06 05:00:32;;;;;;;0.00;0.00;;;;;;;11.79;100.00;100034.22;6239768;23;20057;-76
2023/05/06 05:03:00;;;;;;;0.00;0.00;;;;;;;11.79;100.00;100031.47;6207758;23;20008;-76
2023/05/06 05:05:27;;;;;;;0.00;0.00;;;;;;;11.85;100.00;100038.56;6239593;23;20000;-78
2023/05/06 05:07:52;;;;;;;0.00;0.00;;;;;;;11.85;100.00;100035.81;6208330;23;20018;-76
2023/05/06 05:10:18;;;;;;;0.00;0.00;;;;;;;11.84;100.00;100043.22;6239432;23;20012;-76
2023/05/06 05:12:46;;;;;;;0.00;0.00;;;;;;;11.86;100.00;100043.75;6238012;23;20347;-76
2023/05/06 05:15:12;;;;;;;0.00;0.00;;;;;;;11.87;100.00;100039.09;6238277;23;20004;-76
2023/05/06 05:17:38;;;;;;;0.00;0.00;;;;;;;11.90;100.00;100041.28;6239076;23;20427;-77
2023/05/06 05:20:04;;;;;;;0.00;0.00;;;;;;;11.95;100.00;100046.75;6235098;22;20007;-77
2023/05/06 05:22:30;;;;;;;0.00;0.00;;;;;;;11.94;100.00;100042.34;6214853;23;20450;-76
2023/05/06 05:24:56;;;;;;;0.00;0.00;;;;;;;11.93;100.00;100040.75;6209017;23;20004;-76
2023/05/06 05:27:22;;;;;;;0.00;0.00;;;;;;;11.92;100.00;100041.81;6240301;23;20099;-76
2023/05/06 05:29:48;;;;;;;0.00;0.00;;;;;;;11.89;100.00;100034.16;6237112;22;20396;-76
2023/05/06 05:32:13;;;;;;;0.00;0.00;;;;;;;11.91;100.00;100042.09;6188175;23;20008;-76
2023/05/06 05:34:39;;;;;;;0.00;0.00;;;;;;;11.92;100.00;100046.47;6240188;22;20004;-75
2023/05/06 05:37:04;;;;;;;0.00;0.00;;;;;;;11.91;100.00;100045.63;6208856;23;20020;-75
2023/05/06 05:39:30;;;;;;;0.00;0.00;;;;;;;11.95;100.00;100038.53;6237428;23;20480;-76
2023/05/06 05:41:55;;;;;;;0.00;0.00;;;;;;;11.97;100.00;100051.94;6240494;22;20022;-75
2023/05/06 05:44:20;;;;;;;0.00;0.00;;;;;;;11.95;100.00;100041.25;6234603;23;20075;-76
2023/05/06 05:46:46;;;;;;;0.00;0.00;;;;;;;11.95;100.00;100037.72;6211730;23;20316;-76
2023/05/06 05:49:11;;;;;;;0.00;0.00;;;;;;;11.94;100.00;100034.13;6210670;23;20684;-75
2023/05/06 05:51:37;;;;;;;0.00;0.00;;;;;;;12.00;100.00;100037.66;6238895;23;20008;-75
2023/05/06 05:54:02;;;;;;;0.00;0.00;;;;;;;12.01;100.00;100029.16;6211029;23;20012;-74
2023/05/06 05:56:27;;;;;;;0.00;0.00;;;;;;;12.12;100.00;100037.31;6186620;23;20078;-75
2023/05/06 05:58:53;;;;;;;0.00;0.00;;;;;;;12.17;100.00;100046.31;6238826;23;20078;-76
2023/05/06 06:01:18;;;;;;;0.00;0.00;;;;;;;12.08;100.00;100041.75;6208869;23;20446;-76
2023/05/06 06:03:44;;;;;;;0.00;0.00;;;;;;;12.10;100.00;100047.75;6214611;23;20018;-77
2023/05/06 06:06:10;;;;;;;0.00;0.00;;;;;;;12.08;100.00;100041.75;6234166;23;20008;-75
2023/05/06 06:08:35;;;;;;;0.00;0.00;;;;;;;12.10;100.00;100039.50;6237121;23;20004;-75
2023/05/06 06:11:03;;;;;;;0.00;0.00;;;;;;;12.08;100.00;100044.47;6211484;23;20323;-76
2023/05/06 06:13:29;;;;;;;0.00;0.00;;;;;;;12.13;100.00;100049.91;6232688;23;20011;-75
2023/05/06 06:15:57;;;;;;;0.00;0.00;;;;;;;12.16;100.00;100041.09;6210977;23;20008;-77
2023/05/06 06:18:23;;;;;;;0.00;0.00;;;;;;;12.17;100.00;100042.75;6231379;23;20008;-78
2023/05/06 06:20:49;;;;;;;0.00;0.00;;;;;;;12.16;100.00;100038.38;6237321;23;20485;-78
2023/05/06 06:23:14;;;;;;;0.00;0.00;;;;;;;12.15;100.00;100031.25;6207949;23;20023;-78
2023/05/06 06:25:40;;;;;;;0.00;0.00;;;;;;;12.22;100.00;100040.78;6238100;23;20012;-79
2023/05/06 06:28:05;;;;;;;0.00;0.00;;;;;;;12.22;100.00;100048.19;6234823;23;20040;-76
2023/05/06 06:30:31;;;;;;;0.00;0.00;;;;;;;12.26;100.00;100038.28;6210479;23;20039;-76
2023/05/06 06:32:57;;;;;;;0.00;0.00;;;;;;;12.35;100.00;100046.72;6239617;22;20012;-75
2023/05/06 06:35:23;;;;;;;0.00;0.00;;;;;;;12.44;100.00;100038.69;6206714;23;20408;-77
2023/05/06 06:37:49;;;;;;;0.00;0.00;;;;;;;12.43;100.00;100039.81;6211066;23;20030;-76
2023/05/06 06:40:22;;;;;;;0.00;0.00;;;;;;;12.38;100.00;100019.56;6237560;23;20474;-76
2023/05/06 06:42:50;;;;;;;0.00;0.00;;;;;;;12.55;100.00;100024.59;6233610;23;20427;-76
2023/05/06 06:45:19;;;;;;;0.00;0.00;;;;;;;12.68;100.00;100036.00;6240706;22;20497;-77
2023/05/06 07:05:38;;;;;;;0.00;0.00;;;;;;;12.68;100.00;100011.31;6236409;22;20071;-72
2023/05/06 07:08:06;;;;;;;0.00;0.00;;;;;;;12.83;100.00;100018.56;6204589;23;20019;-74
2023/05/06 07:10:43;;;;;;;0.00;0.00;;;;;;;12.80;99.96;100002.69;6185722;23;20004;-73
2023/05/06 07:13:08;;;;;;;0.00;0.00;;;;;;;12.92;99.73;100028.63;6206835;23;20031;-73
2023/05/06 07:15:33;;;;;;;0.00;0.00;;;;;;;13.05;99.53;100023.53;6231937;23;20120;-76
2023/05/06 07:18:09;;;;;;;0.00;0.00;;;;;;;13.10;98.99;100018.00;6182333;23;20058;-73
2023/05/06 07:20:34;;;;;;;0.00;0.00;;;;;;;13.29;98.67;100023.53;6238091;23;20000;-72
2023/05/06 07:23:00;;;;;;;0.00;0.00;;;;;;;13.53;97.76;100030.94;6206557;23;20484;-73
2023/05/06 07:25:36;;;;;;;;;;;;;;;;;;;;;
2023/05/06 07:28:02;;;;;;;0.00;0.00;;;;;;;13.70;96.11;100014.75;6237056;23;20541;-73
2023/05/06 07:30:30;;;;;;;0.00;0.00;;;;;;;13.83;95.35;100026.09;6185777;23;20042;-74
2023/05/06 07:32:57;;;;;;;0.10;0.10;;;;;;;13.66;94.75;100008.22;6242340;23;20004;-74
2023/05/06 07:35:35;;;;;;;;;;;;;;;;;;;;;
2023/05/06 07:38:04;;;;;;;0.00;0.00;;;;;;;13.33;94.90;99999.84;6243227;23;20083;-76
2023/05/06 07:40:30;;;;;;;0.00;0.00;;;;;;;13.32;95.19;100013.88;6213796;22;20047;-76
2023/05/06 07:42:56;;;;;;;0.00;0.00;;;;;;;13.19;95.98;100023.66;6213010;23;20032;-76
2023/05/06 07:45:23;;;;;;;0.00;0.00;;;;;;;13.06;95.96;100011.44;6214064;23;20062;-73
2023/05/06 07:47:48;;;;;;;0.00;0.00;;;;;;;13.02;96.54;100024.13;6207840;23;20330;-74
2023/05/06 07:50:14;;;;;;;0.00;0.00;;;;;;;12.92;97.68;100027.78;6212783;23;20095;-74
2023/05/06 07:52:39;;;;;;;0.00;0.00;;;;;;;12.79;98.51;100023.81;6159098;23;20449;-73
2023/05/06 07:55:08;;;;;;;0.00;0.00;;;;;;;12.68;99.39;100022.28;6186573;23;20018;-75
2023/05/06 07:57:33;;;;;;;0.00;0.00;;;;;;;12.64;100.00;100027.53;6183689;23;20509;-74
2023/05/06 08:00:01;;;;;;;0.00;0.00;;;;;;;12.44;100.00;100003.03;6188870;23;20004;-74
2023/05/06 08:02:32;;;;;;;0.00;0.00;;;;;;;12.38;100.00;100002.25;6213110;23;20004;-76
2023/05/06 08:04:57;;;;;;;0.00;0.00;;;;;;;12.49;100.00;100019.47;6214549;22;20070;-74
2023/05/06 08:07:23;;;;;;;0.00;0.00;;;;;;;12.52;100.00;100019.69;6181438;23;20009;-75
2023/05/06 08:09:48;;;;;;;0.00;0.00;;;;;;;12.58;100.00;100017.72;6153118;23;20332;-74
2023/05/06 08:12:14;;;;;;;0.00;0.00;;;;;;;12.52;100.00;100010.66;6146302;23;20013;-74
2023/05/06 08:14:40;;;;;;;0.00;0.00;;;;;;;12.50;100.00;99999.13;6178880;23;20135;-78
2023/05/06 08:17:06;;;;;;;0.00;0.00;;;;;;;12.54;100.00;100020.22;6153138;23;20535;-74
2023/05/06 08:19:31;;;;;;;0.00;0.00;;;;;;;12.46;100.00;100009.88;6155969;23;20463;-73
2023/05/06 08:21:56;;;;;;;0.00;0.00;;;;;;;12.60;100.00;100021.00;6150012;23;20587;-74
2023/05/06 08:24:22;;;;;;;0.00;0.00;;;;;;;12.62;100.00;100007.00;6156216;23;20082;-73
2023/05/06 08:26:47;;;;;;;0.00;0.00;;;;;;;12.69;100.00;100019.25;6151314;23;20087;-73
2023/05/06 08:29:13;;;;;;;0.00;0.00;;;;;;;12.70;100.00;100026.38;6182195;23;20005;-73
2023/05/06 08:31:38;;;;;;;0.00;0.00;;;;;;;12.71;100.00;100018.97;6182287;23;20008;-73
2023/05/06 08:34:04;;;;;;;0.00;0.00;;;;;;;12.57;100.00;100011.41;6179708;23;20012;-74
2023/05/06 08:36:29;;;;;;;0.00;0.00;;;;;;;12.55;100.00;100021.03;6209336;23;20001;-73
2023/05/06 08:38:55;;;;;;;0.00;0.00;;;;;;;12.42;100.00;100003.31;6153245;23;20487;-72
2023/05/06 08:41:21;;;;;;;0.00;0.00;;;;;;;12.47;100.00;100016.16;6182626;23;20015;-73
2023/05/06 08:43:49;;;;;;;0.00;0.00;;;;;;;12.43;100.00;100015.13;6156872;23;20008;-73
2023/05/06 08:46:15;;;;;;;0.00;0.00;;;;;;;12.40;100.00;100006.34;6205763;23;20019;-73
2023/05/06 08:48:41;;;;;;;0.00;0.00;;;;;;;12.39;100.00;100004.72;6158874;23;20455;-74
2023/05/06 08:51:07;;;;;;;0.00;0.00;;;;;;;12.55;100.00;100019.09;6153382;23;20009;-74
2023/05/06 08:53:34;;;;;;;0.00;0.00;;;;;;;12.59;100.00;100019.34;6156924;23;20013;-73
2023/05/06 08:56:07;;;;;;;0.00;0.00;;;;;;;12.59;100.00;100008.38;6152029;23;20062;-74
2023/05/06 08:58:34;;;;;;;0.00;0.00;;;;;;;12.66;100.00;100014.34;6209235;23;20055;-74
2023/05/06 09:01:33;;;;;;;;;;;;;;;;;;;;;
2023/05/06 09:04:07;;;;;;;0.00;0.00;;;;;;;12.56;100.00;99979.59;6197066;22;20103;-76
2023/05/06 09:06:35;;;;;;;0.00;0.00;;;;;;;12.73;100.00;99992.03;6153648;23;20012;-74
2023/05/06 09:09:04;;;;;;;0.00;0.00;;;;;;;12.72;100.00;99971.22;6182510;23;20004;-75
2023/05/06 09:11:37;;;;;;;0.00;0.00;;;;;;;12.78;100.00;99966.50;6177604;23;20307;-74
2023/05/06 09:15:01;;;;;;;0.00;0.00;;;;;;;12.83;100.00;99941.72;6180611;23;20008;-74
2023/05/06 09:18:13;;;;;;;0.00;0.00;;;;;;;12.93;100.00;99955.31;6166156;23;20004;-76
2023/05/06 09:21:29;;;;;;;;;;;;;;;;;;;;;
2023/05/06 09:24:15;;;;;;;;;;;;;;;;;;;;;
2023/05/06 09:29:36;;;;;;;0.00;0.00;;;;;;;13.59;100.00;99994.03;6191278;23;20007;-74
2023/05/06 09:32:49;;;;;;;0.00;0.00;;;;;;;13.33;100.00;99966.91;6179710;23;20058;-74
2023/05/06 09:36:19;;;;;;;0.00;0.00;;;;;;;13.00;100.00;99958.53;6027355;23;20010;-75
2023/05/06 09:42:15;;;;;;;0.00;0.00;;;;;;;12.99;100.00;99983.53;6158070;23;20062;-75
2023/05/06 09:44:41;;;;;;;0.00;0.00;;;;;;;12.88;100.00;99963.63;6155082;23;20013;-75
2023/05/06 09:47:06;;;;;;;0.00;0.00;;;;;;;12.93;100.00;99986.31;6181409;23;20012;-75
2023/05/06 09:49:41;;;;;;;0.00;0.00;;;;;;;12.93;100.00;99994.56;6204741;23;20043;-75
2023/05/06 09:52:06;;;;;;;0.00;0.00;;;;;;;12.74;100.00;99967.06;6185510;23;20027;-74
2023/05/06 09:54:34;;;;;;;0.00;0.00;;;;;;;12.82;100.00;99964.78;6206824;23;20028;-76
2023/05/06 09:57:04;;;;;;;0.00;0.00;;;;;;;12.85;100.00;99988.88;6182830;23;20064;-77
2023/05/06 09:59:30;;;;;;;0.00;0.00;;;;;;;12.68;100.00;99979.19;6178122;23;20502;-77
2023/05/06 10:01:58;;;;;;;0.00;0.00;;;;;;;12.62;100.00;99974.88;6154778;23;20009;-75
2023/05/06 10:04:25;;;;;;;0.00;0.00;;;;;;;12.46;100.00;99968.75;6159966;23;20439;-74
2023/05/06 10:06:56;;;;;;;0.00;0.00;;;;;;;12.39;100.00;99955.34;6203123;23;20008;-74
2023/05/06 10:09:37;;;;;;;0.00;0.00;;;;;;;12.66;100.00;99975.94;6200834;23;20005;-74
2023/05/06 10:12:30;;;;;;;0.00;0.00;;;;;;;12.69;100.00;99983.59;6204740;23;20007;-74
2023/05/06 10:14:57;;;;;;;0.00;0.00;;;;;;;12.54;100.00;99978.25;6202535;23;20004;-75
2023/05/06 10:18:18;;;;;;;0.00;0.00;;;;;;;12.31;100.00;99964.22;6155818;23;20320;-76
2023/05/06 10:21:01;;;;;;;0.00;0.00;;;;;;;12.32;100.00;99959.56;6205813;23;20415;-75
2023/05/06 10:23:47;;;;;;;0.00;0.00;;;;;;;12.22;100.00;99965.94;6178863;23;20016;-75
2023/05/06 11:13:25;;;;;;;0.00;0.00;;;;;;;12.78;100.00;99945.34;6220817;22;20028;-76
2023/05/06 11:15:54;;;;;;;0.00;0.00;;;;;;;12.70;100.00;99949.56;6210321;23;20486;-78
2023/05/06 11:18:36;;;;;;;0.00;0.00;;;;;;;12.82;100.00;99951.06;6180271;23;20398;-78
2023/05/06 11:21:01;;;;;;;0.00;0.00;;;;;;;12.88;100.00;99972.69;6180445;23;20331;-76
2023/05/06 11:23:52;;;;;;;0.00;0.00;;;;;;;12.85;100.00;99956.81;6178876;23;20006;-78
2023/05/06 11:26:31;;;;;;;;;;;;;;;;;;;;;
2023/05/06 11:29:00;;;;;;;0.00;0.00;;;;;;;13.04;100.00;99964.25;6209584;23;20064;-79
2023/05/06 11:31:31;;;;;;;0.00;0.00;;;;;;;12.98;100.00;99947.03;6207574;23;20384;-77
2023/05/06 11:34:05;;;;;;;0.00;0.00;;;;;;;13.01;100.00;99956.59;6181146;23;20084;-77
2023/05/06 11:36:51;;;;;;;;;;;;;;;13.19;100.00;99971.50;6181415;23;20000;-78
2023/05/06 11:39:19;;;;;;;0.00;0.00;;;;;;;12.91;100.00;99949.31;6178595;23;19910;-77
2023/05/06 11:41:45;;;;;;;0.00;0.00;;;;;;;12.77;100.00;99937.44;6182189;23;20685;-75
2023/05/06 11:44:13;;;;;;;0.00;0.00;;;;;;;12.82;100.00;99973.00;6178563;23;20072;-75
2023/05/06 11:46:38;;;;;;;0.00;0.00;;;;;;;12.65;100.00;99935.91;6182598;23;20005;-77
2023/05/06 11:49:13;;;;;;;0.00;0.00;;;;;;;12.88;100.00;99952.66;6152528;23;20020;-76
2023/05/06 11:51:41;;;;;;;0.00;0.00;;;;;;;12.81;100.00;99949.44;6208398;23;20023;-75
2023/05/06 11:54:09;;;;;;;0.00;0.00;;;;;;;12.86;100.00;99954.88;6205447;23;20005;-75
2023/05/06 11:57:02;;;;;;;0.00;0.00;;;;;;;13.04;100.00;99954.09;6181012;23;20008;-77
2023/05/06 11:59:40;;;;;;;0.00;0.00;;;;;;;12.99;100.00;99943.16;6183405;23;20008;-76
2023/05/06 12:02:13;;;;;;;0.00;0.00;;;;;;;13.11;100.00;99937.25;6210104;23;20388;-75
2023/05/06 12:04:44;;;;;;;0.00;0.00;;;;;;;13.17;100.00;99940.75;6179863;23;20423;-75
2023/05/06 12:07:17;;;;;;;0.00;0.00;;;;;;;13.19;100.00;99933.06;6182790;23;20331;-74
2023/05/06 12:09:50;;;;;;;0.00;0.00;;;;;;;13.23;100.00;99939.59;6178282;23;20058;-75
2023/05/06 12:12:22;;;;;;;0.00;0.00;;;;;;;13.29;100.00;99952.13;6182467;23;20036;-76
2023/05/06 12:14:51;;;;;;;0.00;0.00;;;;;;;13.34;100.00;99941.09;6204550;23;20024;-76
2023/05/06 12:17:16;;;;;;;0.00;0.00;;;;;;;13.69;100.00;99952.66;6182860;23;20008;-76
2023/05/06 12:19:42;;;;;;;0.00;0.00;;;;;;;13.90;100.00;99952.34;6206113;23;20327;-78
2023/05/06 12:22:28;;;;;;;0.00;0.00;;;;;;;13.85;100.00;99930.44;6184074;23;20007;-76
2023/05/06 12:24:54;;;;;;;0.00;0.00;;;;;;;13.90;100.00;99950.41;6157254;23;20843;-77
2023/05/06 12:27:35;;;;;;;0.00;0.00;;;;;;;14.06;100.00;99948.25;6135331;23;20008;-77
2023/05/06 12:30:03;;;;;;;0.00;0.00;;;;;;;13.77;100.00;99943.75;6206746;23;20012;-76
2023/05/06 12:32:38;;;;;;;0.00;0.00;;;;;;;13.68;100.00;99967.53;6186898;23;20004;-77
2023/05/06 12:35:06;;;;;;;0.00;0.00;;;;;;;13.39;100.00;99943.78;6181742;23;20039;-77
2023/05/06 12:37:31;;;;;;;0.00;0.00;;;;;;;13.54;100.00;99972.13;6158386;23;20121;-75
2023/05/06 12:39:57;;;;;;;0.00;0.00;;;;;;;13.50;100.00;99965.59;6159188;23;20369;-77
2023/05/06 12:42:29;;;;;;;0.00;0.00;;;;;;;13.59;100.00;99952.81;6177930;23;20647;-76
2023/05/06 12:45:17;;;;;;;0.00;0.00;;;;;;;13.67;100.00;99930.19;6160633;23;20354;-76
2023/05/06 12:51:31;;;;;;;0.00;0.00;;;;;;;13.75;100.00;99954.22;6155023;23;20008;-76
2023/05/06 12:54:29;;;;;;;0.00;0.00;;;;;;;13.76;100.00;99944.06;6210198;23;20011;-77
2023/05/06 12:56:55;;;;;;;0.00;0.00;;;;;;;13.70;100.00;99948.00;6136120;23;20012;-75